Time;durP1;ratioP1;P1;durP2;ratioP2;P2;SDS_P1;SDS_P2;PMS_P1;PMS_P2;Temp;Humidity;BMP_temperature;BMP_pressure;BME280_temperature;BME280_humidity;BME280_pressure;Samples;Min_cycle;Max_cycle;Signal;HPM_P1;HPM_P2
2022/05/31 00:00:47;;;;;;;9.93;4.28;;;;;;;17.93;69.61;100907.30;1690645;84;27468;-54
2022/05/31 00:03:14;;;;;;;7.25;4.10;;;;;;;17.92;69.44;100906.46;1726699;82;27263;-54
2022/05/31 00:05:41;;;;;;;14.75;4.12;;;;;;;17.94;69.45;100904.91;1691069;84;25840;-55
2022/05/31 00:08:07;;;;;;;12.80;5.15;;;;;;;17.92;69.42;100909.68;1727358;82;27992;-54
2022/05/31 00:10:34;;;;;;;13.93;4.60;;;;;;;17.94;69.39;100903.55;1690972;84;25781;-55
2022/05/31 00:13:02;;;;;;;9.83;4.33;;;;;;;17.96;69.37;100906.97;1724941;82;27484;-55
2022/05/31 00:15:29;;;;;;;9.28;4.08;;;;;;;17.95;69.70;100906.61;1657922;85;25851;-54
2022/05/31 00:17:56;;;;;;;14.60;4.20;;;;;;;17.89;69.58;100912.75;1725644;82;25911;-54
2022/05/31 00:20:23;;;;;;;16.23;4.95;;;;;;;17.84;69.81;100914.16;1690654;84;27945;-55
2022/05/31 00:22:50;;;;;;;11.50;4.62;;;;;;;17.81;69.74;100913.16;1725927;82;25753;-54
2022/05/31 00:25:17;;;;;;;13.30;4.25;;;;;;;17.76;69.63;100917.44;1691984;84;27413;-54
2022/05/31 00:27:44;;;;;;;13.55;4.25;;;;;;;17.74;69.95;100914.08;1732170;82;25692;-55
2022/05/31 00:30:15;;;;;;;13.98;4.60;;;;;;;17.72;70.00;100912.04;1691734;84;25771;-55
2022/05/31 00:32:47;;;;;;;9.78;3.98;;;;;;;17.71;69.84;100917.98;1723559;82;25997;-54
2022/05/31 00:35:22;;;;;;;16.55;5.15;;;;;;;17.72;69.84;100916.12;1691919;84;25784;-55
2022/05/31 00:37:50;;;;;;;8.50;4.47;;;;;;;17.71;69.86;100909.81;1719839;83;29088;-54
2022/05/31 00:40:20;;;;;;;20.90;4.62;;;;;;;17.73;69.85;100920.01;1691443;84;25812;-55
2022/05/31 00:42:53;;;;;;;13.85;4.55;;;;;;;17.73;69.75;100930.89;1702667;82;25779;-55
2022/05/31 00:45:24;;;;;;;9.83;4.35;;;;;;;17.72;69.77;100928.36;1691831;83;25758;-55
2022/05/31 00:47:53;;;;;;;12.65;4.72;;;;;;;17.71;69.74;100934.30;1697690;84;25546;-55
2022/05/31 00:50:31;;;;;;;8.03;4.08;;;;;;;17.70;69.75;100930.41;1675988;84;27680;-55
2022/05/31 00:53:06;;;;;;;17.62;5.10;;;;;;;17.71;69.74;100923.94;1697398;83;26134;-54
2022/05/31 00:55:44;;;;;;;10.30;4.70;;;;;;;17.69;69.69;100920.05;1697119;82;25478;-54
2022/05/31 00:58:29;;;;;;;10.20;4.50;;;;;;;17.66;69.73;100918.52;1698709;83;25903;-55
2022/05/31 01:00:59;;;;;;;10.82;4.25;;;;;;;17.66;69.90;100929.92;1697262;83;25789;-55
2022/05/31 01:03:28;;;;;;;10.85;5.20;;;;;;;17.66;69.91;100932.64;1703670;82;28159;-55
2022/05/31 01:05:55;;;;;;;13.40;4.72;;;;;;;17.66;69.99;100932.64;1697587;83;26121;-54
2022/05/31 01:08:22;;;;;;;11.88;5.28;;;;;;;17.65;69.88;100930.45;1697756;83;25729;-55
2022/05/31 01:10:57;;;;;;;8.15;4.40;;;;;;;17.63;69.97;100935.71;1701657;81;25742;-55
2022/05/31 01:13:29;;;;;;;10.75;4.50;;;;;;;17.60;70.22;100940.17;1713543;83;25788;-55
2022/05/31 01:16:16;;;;;;;8.95;5.15;;;;;;;17.58;70.16;100932.16;1691799;84;27509;-55
2022/05/31 01:19:01;;;;;;;12.03;4.87;;;;;;;17.53;69.92;100936.78;1689288;82;25793;-54
2022/05/31 01:21:46;;;;;;;11.28;4.37;;;;;;;17.51;70.03;100942.07;1690227;84;25844;-55
2022/05/31 01:24:21;;;;;;;23.07;5.17;;;;;;;17.44;70.33;100937.02;1691021;84;25924;-55
2022/05/31 01:27:11;;;;;;;15.72;5.50;;;;;;;17.36;69.91;100937.89;1691972;84;25822;-55
2022/05/31 01:29:40;;;;;;;13.60;4.75;;;;;;;17.35;69.99;100938.91;1695028;83;27448;-55
2022/05/31 01:32:11;;;;;;;16.05;5.15;;;;;;;17.33;70.30;100947.25;1685110;83;25538;-54
2022/05/31 01:35:01;;;;;;;12.33;5.12;;;;;;;17.30;70.27;100940.80;1685222;83;25808;-55
2022/05/31 01:37:36;;;;;;;14.83;5.78;;;;;;;17.30;70.25;100935.88;1685168;85;25842;-54
2022/05/31 01:40:09;;;;;;;12.70;4.70;;;;;;;17.31;70.32;100945.73;1684612;83;25795;-55
2022/05/31 01:42:42;;;;;;;12.55;5.25;;;;;;;17.30;70.49;100950.84;1696445;83;28247;-55
2022/05/31 01:45:20;;;;;;;17.30;5.15;;;;;;;17.27;70.33;100949.82;1697894;83;26112;-55
2022/05/31 01:47:48;;;;;;;12.85;4.45;;;;;;;17.20;70.62;100953.25;1696897;84;25804;-54
2022/05/31 01:50:20;;;;;;;16.55;5.55;;;;;;;17.13;70.25;100959.55;1698140;84;26466;-55
2022/05/31 01:52:51;;;;;;;17.15;5.75;;;;;;;17.08;70.41;100955.16;1697814;84;25843;-55
2022/05/31 01:55:20;;;;;;;10.40;5.28;;;;;;;17.04;70.38;100961.47;1676011;84;27386;-55
2022/05/31 01:57:52;;;;;;;16.57;4.83;;;;;;;17.00;70.71;100962.33;1675855;84;25831;-56
2022/05/31 02:00:21;;;;;;;17.10;5.22;;;;;;;16.99;70.63;100959.27;1698136;84;29266;-56
2022/05/31 02:02:52;;;;;;;15.18;5.22;;;;;;;17.00;70.81;100974.55;1697699;83;26567;-56
2022/05/31 02:05:20;;;;;;;13.40;5.12;;;;;;;17.00;70.89;100968.25;1697900;84;25703;-55
2022/05/31 02:08:00;;;;;;;15.03;5.25;;;;;;;16.99;71.10;100974.22;1697775;84;28133;-55
2022/05/31 02:10:29;;;;;;;11.55;4.85;;;;;;;16.97;71.04;100972.17;1697946;84;25801;-55
2022/05/31 02:12:56;;;;;;;16.05;4.75;;;;;;;16.98;71.00;100975.76;1697738;84;25816;-54
2022/05/31 02:15:42;;;;;;;12.95;5.05;;;;;;;16.96;70.98;100986.78;1697645;83;25816;-55
2022/05/31 02:19:15;;;;;;;14.87;4.65;;;;;;;16.95;70.80;100984.25;1697671;84;25676;-55
2022/05/31 02:21:14;;;;;;;15.23;4.67;;;;;;;16.92;70.59;100988.63;1697763;84;27482;-57
2022/05/31 02:23:41;;;;;;;14.70;5.28;;;;;;;16.89;70.52;100994.77;1697548;84;25808;-56
2022/05/31 02:26:09;;;;;;;11.15;5.40;;;;;;;16.89;70.53;101001.56;1661868;84;25845;-57
2022/05/31 02:28:36;;;;;;;8.58;4.55;;;;;;;16.86;70.78;101003.25;1690457;83;25909;-55
2022/05/31 02:31:03;;;;;;;11.22;5.00;;;;;;;16.83;70.96;101004.11;1698088;84;25857;-54
2022/05/31 02:33:30;;;;;;;22.17;4.78;;;;;;;16.79;71.62;101006.33;1697727;84;27554;-55
2022/05/31 02:35:57;;;;;;;10.63;5.83;;;;;;;16.72;71.51;101017.02;1697635;84;25533;-53
2022/05/31 02:38:24;;;;;;;19.15;5.90;;;;;;;16.70;71.33;101018.22;1697609;84;25657;-56
2022/05/31 02:40:51;;;;;;;7.03;4.62;;;;;;;16.70;71.54;101014.98;1695272;84;25872;-56
2022/05/31 02:43:18;;;;;;;13.65;5.65;;;;;;;16.69;72.15;101022.78;1684442;85;25733;-56
2022/05/31 02:45:45;;;;;;;15.95;5.47;;;;;;;16.67;71.71;101014.47;1688016;83;29648;-56
2022/05/31 02:48:13;;;;;;;12.13;5.65;;;;;;;16.69;71.70;101015.99;1697775;84;25736;-56
2022/05/31 02:50:40;;;;;;;20.17;5.50;;;;;;;16.76;71.83;101016.69;1697695;83;25815;-54
2022/05/31 02:53:07;;;;;;;18.55;5.65;;;;;;;16.82;71.89;101020.91;1697880;83;25616;-54
2022/05/31 02:55:34;;;;;;;16.23;5.33;;;;;;;16.89;71.91;101021.94;1697797;83;25787;-54
2022/05/31 02:58:21;;;;;;;27.95;6.05;;;;;;;16.96;71.68;101019.91;1697682;83;27528;-54
2022/05/31 03:01:32;;;;;;;17.15;5.62;;;;;;;17.05;71.71;101021.59;1697565;84;25838;-52
2022/05/31 03:04:19;;;;;;;21.10;5.72;;;;;;;17.14;71.75;101014.26;1695505;83;25572;-56
2022/05/31 03:07:04;;;;;;;11.73;7.00;;;;;;;17.23;71.88;101022.73;1686094;84;26511;-54
2022/05/31 03:09:32;;;;;;;17.02;7.80;;;;;;;17.31;71.67;101026.78;1703063;83;25793;-55
2022/05/31 03:12:08;;;;;;;13.53;5.45;;;;;;;17.41;71.76;101023.87;1697599;83;27504;-55
2022/05/31 03:14:56;;;;;;;17.82;6.60;;;;;;;17.50;71.35;101026.05;1697068;83;25769;-55
2022/05/31 03:17:38;;;;;;;14.25;5.90;;;;;;;17.56;71.36;101023.14;1697762;84;25813;-55
2022/05/31 03:20:30;;;;;;;10.03;6.05;;;;;;;17.61;71.34;101029.75;1698243;84;26345;-55
2022/05/31 03:23:21;;;;;;;22.35;6.30;;;;;;;17.66;71.40;101038.22;1697444;83;25848;-55
2022/05/31 03:25:51;;;;;;;17.50;9.45;;;;;;;17.72;71.51;101042.11;1696313;83;27685;-55
2022/05/31 03:28:20;;;;;;;20.77;9.98;;;;;;;17.74;71.37;101042.78;1693262;84;25527;-55
2022/05/31 03:30:48;;;;;;;28.42;13.05;;;;;;;17.80;71.53;101040.70;1695617;84;25548;-54
2022/05/31 03:33:16;;;;;;;26.52;13.10;;;;;;;17.83;72.60;101047.16;1705817;83;25823;-54
2022/05/31 03:35:43;;;;;;;25.72;11.05;;;;;;;17.86;72.75;101043.23;1704930;84;25809;-55
2022/05/31 03:38:11;;;;;;;22.60;12.07;;;;;;;17.94;72.66;101060.05;1704145;83;28261;-53
2022/05/31 03:43:36;;;;;;;23.73;10.98;;;;;;;18.15;72.63;101041.22;1703368;83;25818;-54
2022/05/31 03:46:11;;;;;;;28.00;11.63;;;;;;;18.30;72.70;101046.75;1658732;84;25952;-54
2022/05/31 03:48:41;;;;;;;24.67;10.90;;;;;;;18.43;72.74;101054.84;1688693;84;25645;-54
2022/05/31 03:51:11;;;;;;;30.08;12.40;;;;;;;18.57;72.72;101060.02;1705044;83;27474;-55
2022/05/31 03:53:39;;;;;;;24.67;10.58;;;;;;;18.62;72.68;101063.03;1674199;85;25758;-53
2022/05/31 03:56:11;;;;;;;19.57;10.15;;;;;;;18.71;72.42;101065.20;1695407;83;25468;-55
2022/05/31 03:58:39;;;;;;;16.37;10.13;;;;;;;18.76;72.53;101068.20;1695681;83;25942;-55
2022/05/31 04:01:11;;;;;;;18.87;10.25;;;;;;;18.77;72.34;101069.91;1689638;84;27353;-54
2022/05/31 04:03:38;;;;;;;24.43;10.70;;;;;;;18.75;72.47;101070.09;1706758;84;27955;-55
2022/05/31 04:06:05;;;;;;;21.77;11.40;;;;;;;18.61;73.58;101078.55;1704605;84;26109;-55
2022/05/31 04:08:32;;;;;;;20.50;11.22;;;;;;;18.45;73.53;101080.87;1704183;84;25485;-55
2022/05/31 04:10:59;;;;;;;25.00;11.78;;;;;;;18.42;73.76;101081.22;1704043;83;25838;-55
2022/05/31 04:13:28;;;;;;;26.25;11.90;;;;;;;18.44;74.21;101086.51;1704307;84;25695;-55
2022/05/31 04:16:07;;;;;;;23.98;11.40;;;;;;;18.26;75.00;101094.45;1696463;83;27397;-54
2022/05/31 04:18:37;;;;;;;17.92;11.25;;;;;;;18.17;75.26;101099.61;1704125;83;25737;-55
2022/05/31 04:21:08;;;;;;;29.52;11.65;;;;;;;18.20;75.43;101095.67;1704149;83;25738;-55
2022/05/31 04:26:24;;;;;;;25.85;11.20;;;;;;;18.09;75.95;101103.20;1665537;84;25987;-54
2022/05/31 04:28:56;;;;;;;27.45;13.30;;;;;;;18.14;76.17;101100.81;1660816;84;27472;-54
2022/05/31 04:31:41;;;;;;;23.07;10.88;;;;;;;18.21;75.79;101097.37;1684323;85;25737;-55
2022/05/31 04:34:11;;;;;;;22.05;11.73;;;;;;;18.20;75.93;101095.14;1682649;84;25829;-55
2022/05/31 04:36:38;;;;;;;25.05;11.63;;;;;;;18.18;75.59;101097.72;1704772;82;25831;-55
2022/05/31 04:39:05;;;;;;;28.25;12.18;;;;;;;18.28;75.55;101099.70;1696131;83;25639;-55
2022/05/31 04:41:33;;;;;;;23.73;12.05;;;;;;;18.38;75.42;101108.99;1684442;84;27610;-54
2022/05/31 04:44:05;;;;;;;27.77;11.78;;;;;;;18.43;75.43;101106.07;1674820;84;25743;-56
2022/05/31 04:46:35;;;;;;;22.73;11.10;;;;;;;18.52;74.97;101099.20;1704438;84;25846;-54
2022/05/31 04:49:09;;;;;;;22.13;11.50;;;;;;;18.64;75.13;101102.38;1703894;84;25813;-53
2022/05/31 04:51:36;;;;;;;28.87;13.48;;;;;;;18.80;75.09;101109.56;1704143;84;25755;-55
2022/05/31 04:54:05;;;;;;;25.68;12.68;;;;;;;18.82;74.90;101103.42;1704167;84;27504;-55
2022/05/31 04:56:53;;;;;;;19.50;12.13;;;;;;;18.84;74.54;101104.09;1692014;84;25878;-55
2022/05/31 04:59:20;;;;;;;23.52;12.75;;;;;;;18.94;74.58;101104.73;1670444;85;25685;-55
2022/05/31 05:01:48;;;;;;;21.90;12.68;;;;;;;19.03;74.28;101104.13;1670580;85;26618;-54
2022/05/31 05:04:16;;;;;;;33.08;14.65;;;;;;;19.11;74.04;101104.58;1669977;85;25765;-54
2022/05/31 05:06:45;;;;;;;22.15;12.90;;;;;;;19.18;73.79;101106.39;1669737;85;27489;-55
2022/05/31 05:09:12;;;;;;;20.12;11.60;;;;;;;19.20;73.51;101113.02;1669557;84;25492;-55
2022/05/31 05:11:41;;;;;;;20.12;12.35;;;;;;;19.26;73.68;101112.27;1668380;85;25863;-55
2022/05/31 05:14:16;;;;;;;27.50;12.15;;;;;;;19.32;73.30;101116.97;1668734;85;25818;-55
2022/05/31 05:16:58;;;;;;;24.92;12.88;;;;;;;19.46;73.22;101115.83;1689329;84;25474;-55
2022/05/31 05:19:25;;;;;;;25.43;12.55;;;;;;;19.57;72.85;101112.64;1675675;84;27545;-55
2022/05/31 05:21:54;;;;;;;22.90;12.10;;;;;;;19.69;72.60;101108.92;1665922;85;25562;-55
2022/05/31 05:24:22;;;;;;;21.00;11.80;;;;;;;19.81;72.05;101118.84;1714794;82;25877;-55
2022/05/31 05:26:50;;;;;;;31.15;14.03;;;;;;;19.89;71.67;101121.50;1652724;82;25920;-55
2022/05/31 05:32:20;;;;;;;26.93;13.00;;;;;;;19.91;71.32;101130.36;1707438;82;27581;-55
2022/05/31 05:35:05;;;;;;;;;;;;;;;20.05;71.09;101123.69;1668249;84;25877;-54
2022/05/31 05:37:32;;;;;;;27.42;13.03;;;;;;;20.10;70.42;101123.45;1704503;82;25738;-54
2022/05/31 05:40:01;;;;;;;22.80;12.53;;;;;;;20.13;70.38;101132.64;1704410;84;25823;-54
2022/05/31 05:42:42;;;;;;;55.65;13.55;;;;;;;20.18;70.25;101132.06;1682705;85;25734;-54
2022/05/31 05:45:28;;;;;;;27.25;12.98;;;;;;;20.31;70.26;101130.02;1712531;83;27528;-55
2022/05/31 05:47:55;;;;;;;17.87;11.73;;;;;;;20.44;69.83;101130.16;1690097;84;25717;-55
2022/05/31 05:50:22;;;;;;;24.40;11.68;;;;;;;20.48;69.45;101134.73;1691806;84;25712;-55
2022/05/31 05:52:56;;;;;;;23.52;12.80;;;;;;;20.62;69.44;101137.06;1695985;84;25822;-55
2022/05/31 05:55:25;;;;;;;23.52;12.15;;;;;;;20.69;68.75;101141.24;1656121;84;25857;-55
2022/05/31 05:58:10;;;;;;;20.25;12.20;;;;;;;20.71;68.55;101139.17;1691334;84;27541;-56
2022/05/31 06:00:56;;;;;;;23.75;12.05;;;;;;;20.78;68.67;101145.58;1702116;84;25769;-55
2022/05/31 06:03:39;;;;;;;23.32;11.73;;;;;;;20.95;68.25;101139.34;1672005;84;25863;-56
2022/05/31 06:06:08;;;;;;;25.37;11.95;;;;;;;21.00;67.67;101140.12;1696112;84;25815;-56
2022/05/31 06:08:42;;;;;;;28.95;11.28;;;;;;;21.16;68.02;101136.27;1699912;84;25720;-56
2022/05/31 06:11:17;;;;;;;28.60;11.78;;;;;;;21.31;67.46;101140.25;1691825;84;28565;-56
2022/05/31 06:14:04;;;;;;;18.48;10.58;;;;;;;21.39;66.96;101144.21;1692798;84;25567;-56
2022/05/31 06:16:35;;;;;;;17.37;10.58;;;;;;;21.38;66.57;101148.84;1691652;84;25832;-56
2022/05/31 06:19:08;;;;;;;28.07;11.20;;;;;;;21.38;66.57;101148.02;1707013;84;25783;-56
2022/05/31 06:21:35;;;;;;;14.60;9.98;;;;;;;21.50;66.70;101151.87;1677272;84;25800;-56
2022/05/31 06:24:05;;;;;;;15.38;8.00;;;;;;;21.58;66.56;101144.08;1670003;85;27489;-56
2022/05/31 06:26:33;;;;;;;16.32;9.28;;;;;;;21.61;66.57;101146.93;1670759;85;25783;-56
2022/05/31 06:29:03;;;;;;;12.50;8.28;;;;;;;21.67;66.26;101148.35;1690060;84;25821;-55
2022/05/31 06:31:30;;;;;;;16.52;9.23;;;;;;;21.60;66.28;101150.20;1704273;84;25736;-56
2022/05/31 06:33:58;;;;;;;20.05;9.20;;;;;;;21.67;66.34;101157.94;1704399;83;25557;-56
2022/05/31 06:36:26;;;;;;;17.70;9.33;;;;;;;21.75;65.75;101153.34;1715625;81;27589;-56
2022/05/31 06:38:53;;;;;;;26.07;9.78;;;;;;;21.68;65.78;101154.16;1716497;83;25769;-56
2022/05/31 06:41:20;;;;;;;17.50;9.40;;;;;;;21.68;65.92;101161.50;1714504;83;25779;-56
2022/05/31 06:43:49;;;;;;;15.58;10.13;;;;;;;21.68;65.70;101166.98;1711023;83;25814;-55
2022/05/31 06:46:32;;;;;;;25.70;10.50;;;;;;;21.65;65.56;101162.76;1692202;84;26197;-55
2022/05/31 06:49:18;;;;;;;20.10;11.20;;;;;;;21.66;65.37;101159.48;1702440;83;27504;-56
2022/05/31 06:57:35;;;;;;;16.37;10.13;;;;;;;21.57;65.15;101154.67;1687369;84;25833;-55
2022/05/31 07:00:18;;;;;;;27.75;9.93;;;;;;;21.65;65.26;101161.92;1672217;83;25558;-55
2022/05/31 07:02:47;;;;;;;21.33;10.38;;;;;;;21.70;65.25;101166.27;1682969;83;28086;-55
2022/05/31 07:05:16;;;;;;;20.52;10.40;;;;;;;21.81;65.31;101169.81;1689589;83;25743;-55
2022/05/31 07:07:43;;;;;;;16.42;9.05;;;;;;;21.89;64.75;101172.39;1657319;85;25862;-54
2022/05/31 07:10:28;;;;;;;18.35;10.28;;;;;;;21.95;64.51;101177.59;1692705;84;25998;-53
2022/05/31 07:13:03;;;;;;;17.40;11.12;;;;;;;21.93;64.59;101181.55;1699930;84;25781;-55
2022/05/31 07:15:31;;;;;;;18.55;9.88;;;;;;;21.85;64.29;101183.95;1699517;83;27745;-54
2022/05/31 07:17:59;;;;;;;18.87;10.00;;;;;;;21.86;64.79;101174.69;1699638;84;25720;-55
2022/05/31 07:20:26;;;;;;;13.25;9.75;;;;;;;22.00;64.76;101177.81;1699727;84;25757;-54
2022/05/31 07:22:53;;;;;;;20.82;10.43;;;;;;;22.12;64.20;101175.34;1700217;83;25987;-55
2022/05/31 07:25:28;;;;;;;16.55;9.58;;;;;;;22.15;64.42;101180.43;1699748;83;25757;-54
2022/05/31 07:27:57;;;;;;;13.03;8.50;;;;;;;22.26;64.29;101177.62;1699189;83;27454;-55
2022/05/31 07:30:24;;;;;;;21.20;9.68;;;;;;;22.37;64.13;101180.30;1701354;83;26783;-55
2022/05/31 07:32:51;;;;;;;14.87;9.55;;;;;;;22.50;63.79;101183.13;1690179;83;25843;-55
2022/05/31 07:35:18;;;;;;;21.60;9.10;;;;;;;22.54;63.09;101189.05;1720006;81;25826;-55
2022/05/31 07:37:45;;;;;;;13.50;9.35;;;;;;;22.65;62.95;101180.73;1688028;83;25725;-53
2022/05/31 07:40:13;;;;;;;25.17;10.60;;;;;;;22.82;63.04;101186.70;1656903;85;28311;-55
2022/05/31 07:42:41;;;;;;;31.75;9.83;;;;;;;22.92;62.22;101191.77;1691041;83;25845;-54
2022/05/31 07:45:11;;;;;;;24.40;9.28;;;;;;;23.02;61.97;101188.64;1704148;84;25706;-55
2022/05/31 07:47:38;;;;;;;16.02;9.45;;;;;;;23.07;62.04;101188.34;1704398;84;25973;-55
2022/05/31 07:50:06;;;;;;;16.85;9.65;;;;;;;23.12;61.81;101191.82;1702062;84;25757;-56
2022/05/31 07:52:53;;;;;;;15.25;9.85;;;;;;;23.13;61.48;101188.00;1679894;82;27519;-56
2022/05/31 07:55:40;;;;;;;29.05;10.30;;;;;;;22.89;60.88;101194.95;1688407;82;25765;-56
2022/05/31 07:58:33;;;;;;;16.70;9.68;;;;;;;22.61;61.57;101195.93;1665314;84;25724;-55
2022/05/31 08:01:25;;;;;;;19.60;9.98;;;;;;;22.39;62.28;101200.13;1705986;83;25778;-56
2022/05/31 08:03:54;;;;;;;24.70;9.95;;;;;;;22.13;62.80;101198.95;1654330;84;25557;-55
2022/05/31 08:06:26;;;;;;;20.05;10.13;;;;;;;22.00;63.49;101205.21;1656016;84;27460;-55
2022/05/31 08:08:53;;;;;;;21.93;9.55;;;;;;;21.97;63.75;101199.30;1666657;85;25790;-55
2022/05/31 08:11:24;;;;;;;20.23;9.88;;;;;;;22.04;64.06;101206.52;1690520;84;25749;-55
2022/05/31 08:13:53;;;;;;;16.62;7.72;;;;;;;22.22;64.08;101197.41;1685513;84;26504;-55
2022/05/31 08:16:22;;;;;;;13.55;8.45;;;;;;;22.40;63.68;101199.66;1691534;84;25683;-55
2022/05/31 08:18:50;;;;;;;23.07;8.33;;;;;;;22.70;63.03;101190.58;1677349;84;27403;-55
2022/05/31 08:21:27;;;;;;;17.23;7.87;;;;;;;22.96;62.65;101200.75;1656397;86;25748;-55
2022/05/31 08:24:04;;;;;;;12.35;8.28;;;;;;;23.24;61.97;101192.06;1656911;85;25672;-54
2022/05/31 08:26:31;;;;;;;13.48;7.47;;;;;;;23.59;61.57;101195.42;1655777;86;25805;-56
2022/05/31 08:28:58;;;;;;;19.62;8.38;;;;;;;23.73;59.58;101194.05;1679686;84;27329;-55
2022/05/31 08:34:10;;;;;;;20.37;9.25;;;;;;;23.89;58.87;101196.88;1698244;83;25736;-55
2022/05/31 08:36:37;;;;;;;17.98;8.33;;;;;;;24.03;58.97;101193.57;1694277;84;25790;-56
2022/05/31 08:39:03;;;;;;;19.52;7.37;;;;;;;24.08;57.59;101192.41;1691576;84;25949;-56
2022/05/31 08:41:36;;;;;;;13.78;8.88;;;;;;;23.94;57.85;101193.49;1702133;83;25490;-55
2022/05/31 08:44:20;;;;;;;14.65;7.97;;;;;;;24.01;58.28;101193.80;1688882;83;27665;-56
2022/05/31 08:47:01;;;;;;;13.98;7.80;;;;;;;24.03;57.94;101201.81;1696712;82;26129;-55
2022/05/31 08:53:31;;;;;;;19.62;8.78;;;;;;;23.85;58.35;101201.10;1704229;84;25799;-55
2022/05/31 08:59:08;;;;;;;22.32;9.00;;;;;;;23.69;58.55;101206.50;1684372;84;28335;-55
2022/05/31 09:01:41;;;;;;;16.37;8.68;;;;;;;23.51;58.94;101205.80;1672004;84;27337;-55
2022/05/31 09:04:25;;;;;;;14.20;8.23;;;;;;;23.42;58.89;101202.41;1671251;84;25753;-55
2022/05/31 09:07:06;;;;;;;18.42;8.80;;;;;;;23.37;59.30;101203.03;1665265;85;25801;-56
2022/05/31 09:09:56;;;;;;;19.67;8.65;;;;;;;23.66;59.37;101198.17;1670121;84;25775;-55
2022/05/31 09:12:49;;;;;;;16.32;8.25;;;;;;;23.85;59.10;101201.94;1667063;85;27642;-56
2022/05/31 09:15:23;;;;;;;18.17;7.50;;;;;;;24.08;58.38;101197.91;1663062;86;25820;-55
2022/05/31 09:18:04;;;;;;;15.88;8.03;;;;;;;24.33;58.25;101195.30;1666162;86;25801;-55
2022/05/31 09:20:57;;;;;;;23.27;8.15;;;;;;;24.48;57.67;101198.28;1655284;85;25711;-56
2022/05/31 09:23:29;;;;;;;15.30;8.07;;;;;;;24.67;57.55;101200.61;1656823;86;25780;-56
2022/05/31 09:26:29;;;;;;;12.58;7.20;;;;;;;24.82;57.03;101201.22;1673899;85;27462;-56
2022/05/31 09:29:18;;;;;;;17.32;7.85;;;;;;;24.81;55.98;101194.02;1708454;82;25834;-57
2022/05/31 09:32:17;;;;;;;22.62;6.70;;;;;;;24.96;55.70;101200.59;1700478;83;25807;-56
2022/05/31 09:35:02;;;;;;;15.93;6.62;;;;;;;25.09;55.71;101198.80;1682435;84;25867;-55
2022/05/31 09:37:43;;;;;;;12.18;6.42;;;;;;;25.30;55.52;101198.44;1664182;83;28830;-55
2022/05/31 09:40:43;;;;;;;9.40;6.12;;;;;;;25.47;54.66;101196.52;1683748;85;27544;-55
2022/05/31 09:43:24;;;;;;;13.83;5.67;;;;;;;25.50;54.11;101194.70;1683706;85;25846;-55
2022/05/31 09:46:11;;;;;;;24.15;6.62;;;;;;;25.49;53.91;101195.77;1686655;84;25691;-55
2022/05/31 09:48:52;;;;;;;13.98;6.28;;;;;;;25.39;53.89;101204.52;1692940;84;25815;-56
2022/05/31 09:51:37;;;;;;;12.82;6.97;;;;;;;25.70;54.06;101206.91;1702500;82;25804;-55
2022/05/31 09:57:21;;;;;;;12.25;5.78;;;;;;;26.87;51.63;101198.77;1657202;86;25682;-56
2022/05/31 10:00:14;;;;;;;22.42;5.92;;;;;;;27.30;51.49;101206.47;1657258;86;25730;-55
2022/05/31 10:03:11;;;;;;;15.63;5.92;;;;;;;27.78;49.69;101202.70;1656910;86;25828;-56
2022/05/31 10:05:48;;;;;;;11.97;6.25;;;;;;;28.39;48.40;101207.90;1657278;86;25500;-56
2022/05/31 10:08:32;;;;;;;13.38;5.87;;;;;;;28.50;46.73;101203.96;1657259;86;27512;-55
2022/05/31 10:11:04;;;;;;;;;;;;;;;28.50;47.05;101199.28;1659718;86;25764;-55
2022/05/31 10:13:42;;;;;;;12.50;5.67;;;;;;;28.45;47.29;101197.78;1657493;86;25808;-56
2022/05/31 10:16:17;;;;;;;10.90;4.80;;;;;;;28.52;46.24;101195.70;1657533;86;25756;-55
2022/05/31 10:18:57;;;;;;;8.98;5.90;;;;;;;28.64;46.00;101192.91;1702145;83;26331;-56
2022/05/31 10:21:41;;;;;;;9.30;4.78;;;;;;;29.42;46.02;101193.75;1685040;85;27547;-56
2022/05/31 10:24:19;;;;;;;8.00;4.70;;;;;;;29.47;43.83;101188.30;1645712;85;25878;-56
2022/05/31 10:27:15;;;;;;;11.30;5.37;;;;;;;29.82;43.86;101191.84;1684961;85;25815;-56
2022/05/31 10:30:01;;;;;;;11.65;5.28;;;;;;;30.32;42.29;101192.80;1691926;84;25791;-56
2022/05/31 10:32:51;;;;;;;12.00;5.40;;;;;;;31.17;42.03;101186.78;1644510;84;25893;-55
2022/05/31 10:35:32;;;;;;;19.32;4.97;;;;;;;31.40;40.49;101181.12;1691207;84;27526;-56
2022/05/31 10:38:20;;;;;;;15.83;5.08;;;;;;;31.67;40.69;101185.25;1684929;85;25781;-56
2022/05/31 10:41:00;;;;;;;11.03;5.12;;;;;;;32.09;38.63;101177.95;1684333;83;26871;-56
2022/05/31 10:43:44;;;;;;;22.37;5.45;;;;;;;32.32;38.64;101178.05;1685302;85;25807;-56
2022/05/31 10:46:33;;;;;;;9.70;4.50;;;;;;;32.99;38.12;101179.61;1685062;84;27325;-56
2022/05/31 10:49:08;;;;;;;9.05;4.20;;;;;;;33.47;36.76;101168.17;1680780;85;28522;-56
2022/05/31 10:51:57;;;;;;;16.02;3.80;;;;;;;33.84;35.30;101169.77;1685143;83;25944;-56
2022/05/31 10:54:59;;;;;;;9.13;4.55;;;;;;;34.08;34.84;101175.29;1720377;83;25695;-56
2022/05/31 10:58:20;;;;;;;13.65;5.08;;;;;;;34.52;34.32;101166.73;1692892;84;25851;-57
2022/05/31 11:01:19;;;;;;;11.88;4.45;;;;;;;34.54;33.21;101167.25;1686228;84;25747;-56
2022/05/31 11:04:12;;;;;;;10.13;4.47;;;;;;;34.59;34.17;101165.27;1684589;84;27464;-55
2022/05/31 11:06:51;;;;;;;10.43;3.50;;;;;;;34.70;32.37;101167.41;1683896;84;25708;-55
2022/05/31 11:12:53;;;;;;;20.65;7.25;;;;;;;35.05;32.97;101164.67;1696464;84;25819;-55
2022/05/31 11:15:50;;;;;;;10.68;4.00;;;;;;;35.70;32.49;101154.53;1682652;85;25707;-56
2022/05/31 11:18:40;;;;;;;11.20;4.72;;;;;;;35.65;32.57;101155.16;1684959;83;27466;-56
2022/05/31 11:21:44;;;;;;;12.30;4.78;;;;;;;34.94;31.55;101159.16;1684262;85;44064;-57
2022/05/31 11:24:32;;;;;;;12.43;4.42;;;;;;;35.16;32.08;101150.03;1657108;85;25857;-55
2022/05/31 11:27:19;;;;;;;13.90;6.03;;;;;;;35.71;31.36;101148.39;1684954;84;27858;-55
2022/05/31 11:30:11;;;;;;;8.45;4.03;;;;;;;35.28;31.46;101144.07;1684973;85;25753;-56
2022/05/31 11:33:01;;;;;;;11.20;4.50;;;;;;;35.41;31.54;101147.01;1685251;85;27499;-56
2022/05/31 11:35:55;;;;;;;8.55;3.40;;;;;;;36.20;31.12;101139.39;1659297;85;25762;-56
2022/05/31 11:38:30;;;;;;;6.92;3.37;;;;;;;36.95;29.97;101139.12;1684783;85;25842;-56
2022/05/31 11:41:15;;;;;;;30.68;5.85;;;;;;;37.67;29.37;101129.97;1684930;85;25837;-56
2022/05/31 11:43:59;;;;;;;15.60;8.15;;;;;;;38.27;27.20;101128.72;1680049;85;25913;-56
2022/05/31 11:46:39;;;;;;;6.67;3.47;;;;;;;38.54;27.85;101125.59;1682406;83;28509;-56
2022/05/31 11:49:11;;;;;;;9.68;3.95;;;;;;;38.95;26.85;101123.17;1681569;85;26074;-56
2022/05/31 11:52:08;;;;;;;9.30;3.17;;;;;;;39.28;26.62;101120.06;1707432;83;25629;-56
2022/05/31 11:55:30;;;;;;;20.57;7.83;;;;;;;39.67;26.46;101118.41;1723678;83;25856;-56
2022/05/31 11:58:17;;;;;;;9.13;2.90;;;;;;;40.31;25.38;101115.67;1723838;83;25827;-56
2022/05/31 12:01:24;;;;;;;11.65;3.30;;;;;;;40.70;24.79;101107.97;1724115;82;27627;-56
2022/05/31 12:04:23;;;;;;;13.65;3.40;;;;;;;40.98;24.40;101113.45;1723800;83;25733;-56
2022/05/31 12:07:04;;;;;;;9.18;3.08;;;;;;;41.56;23.12;101099.58;1712356;82;25658;-57
2022/05/31 12:09:56;;;;;;;8.65;2.50;;;;;;;41.59;23.00;101105.97;1713519;83;25747;-56
2022/05/31 12:12:33;;;;;;;11.75;3.12;;;;;;;41.53;22.26;101099.68;1705628;83;25771;-56
2022/05/31 12:15:11;;;;;;;10.95;3.17;;;;;;;41.47;22.11;101097.41;1685293;83;27455;-56
2022/05/31 12:18:06;;;;;;;13.95;4.08;;;;;;;41.41;22.80;101098.16;1684749;85;25760;-56
2022/05/31 12:20:58;;;;;;;21.07;5.78;;;;;;;41.74;21.77;101100.31;1684772;83;25847;-56
2022/05/31 12:23:46;;;;;;;6.70;2.30;;;;;;;41.57;20.93;101092.20;1689062;83;25771;-57
2022/05/31 12:26:40;;;;;;;7.08;2.02;;;;;;;41.85;20.51;101093.67;1692715;84;25742;-56
2022/05/31 12:29:15;;;;;;;42.85;4.95;;;;;;;41.68;19.92;101091.21;1613491;86;27513;-56